Valley Head, West Virginia
Current Conditions -  °F | °C
As of 6:51 AM on Wednesday 26 Nov 2014 (Local Time) from KEKN Reporting Station
Light Rain Light Rain  
Wind Chill: 30°   Ceiling: 2400
Heat Index: 35°   Visibility: 8mi
Dew Point: 34°   Wind: 6mph
Humidity: 96%   Direction: 230°SW
Pressure: 30.02"   Gusts: NA
Location:  38.55°N, 80.04°W
Report Text: KEKN 261151Z AUTO 23005KT 8SM -RA FEW015 OVC024 02/01 A3002 RMK AO2 RAB00 PRESRR SLP186 P0002 60002 70002 T00170011 10022 20000 55001 TSNO
Loading
Personal Weather Stations






























Interactive Weather Map New forecast layout! Learn more

10-Day Weather Forecast

Advertisements
Track Severe Weather on mobile